Time;durP1;ratioP1;P1;durP2;ratioP2;P2;SDS_P1;SDS_P2;PMS_P1;PMS_P2;Temp;Humidity;BMP_temperature;BMP_pressure;BME280_temperature;BME280_humidity;BME280_pressure;Samples;Min_cycle;Max_cycle;Signal;HPM_P1;HPM_P2
2022/07/09 00:01:03;;;;;;;5.03;4.38;;;;;;;;;;10392447;28;20783;-89
2022/07/09 00:06:07;;;;;;;5.68;4.35;;;;;;;;;;10388219;28;21000;-88
2022/07/09 00:11:09;;;;;;;4.47;4.07;;;;;;;;;;10421825;28;20424;-88
2022/07/09 00:16:11;;;;;;;4.00;3.60;;;;;;;;;;10418583;28;20453;-88
2022/07/09 00:21:14;;;;;;;4.50;3.60;;;;;;;;;;10413832;28;20821;-88
2022/07/09 00:26:15;;;;;;;3.57;3.17;;;;;;;;;;10428547;28;21069;-88
2022/07/09 00:31:17;;;;;;;3.20;2.80;;;;;;;;;;10421681;28;20836;-88
2022/07/09 00:36:21;;;;;;;3.13;2.83;;;;;;;;;;10424683;28;20905;-88
2022/07/09 00:41:23;;;;;;;3.08;2.50;;;;;;;;;;10421988;28;20482;-89
2022/07/09 00:46:25;;;;;;;2.95;2.70;;;;;;;;;;10421125;28;20399;-88
2022/07/09 00:51:28;;;;;;;4.03;2.20;;;;;;;;;;10422986;28;20436;-87
2022/07/09 00:56:31;;;;;;;4.47;2.30;;;;;;;;;;10411897;28;20980;-88
2022/07/09 01:01:33;;;;;;;2.30;2.08;;;;;;;;;;10410765;28;20480;-88
2022/07/09 01:06:36;;;;;;;2.00;1.87;;;;;;;;;;10420501;28;20495;-87
2022/07/09 01:11:38;;;;;;;2.80;1.80;;;;;;;;;;10407256;28;20917;-87
2022/07/09 01:16:40;;;;;;;2.20;1.60;;;;;;;;;;10404177;28;20405;-89
2022/07/09 01:21:43;;;;;;;2.20;1.67;;;;;;;;;;10412721;28;20401;-88
2022/07/09 01:26:45;;;;;;;3.00;1.70;;;;;;;;;;10407850;28;21236;-89
2022/07/09 01:31:47;;;;;;;3.40;1.60;;;;;;;;;;10419303;28;20455;-89
2022/07/09 01:36:50;;;;;;;2.95;1.50;;;;;;;;;;10406285;28;20504;-89
2022/07/09 01:41:52;;;;;;;2.65;1.73;;;;;;;;;;10419430;28;20480;-88
2022/07/09 01:46:54;;;;;;;3.08;1.52;;;;;;;;;;10402760;28;20495;-88
2022/07/09 01:51:57;;;;;;;2.83;1.48;;;;;;;;;;10408740;28;20697;-88
2022/07/09 01:56:59;;;;;;;2.17;1.20;;;;;;;;;;10413660;28;20775;-88
2022/07/09 02:02:01;;;;;;;2.50;1.23;;;;;;;;;;10418466;28;20419;-89
2022/07/09 02:07:05;;;;;;;1.35;1.20;;;;;;;;;;10429524;28;20504;-88
2022/07/09 02:12:07;;;;;;;1.48;1.23;;;;;;;;;;10421231;28;20504;-86
2022/07/09 02:17:10;;;;;;;2.40;1.20;;;;;;;;;;10426119;28;20751;-87
2022/07/09 02:22:13;;;;;;;3.83;1.40;;;;;;;;;;10432372;28;20406;-88
2022/07/09 02:27:15;;;;;;;2.67;1.30;;;;;;;;;;10429948;28;20411;-88
2022/07/09 02:32:17;;;;;;;3.92;1.40;;;;;;;;;;10434235;28;20519;-88
2022/07/09 02:37:21;;;;;;;3.60;1.30;;;;;;;;;;10434242;28;20408;-88
2022/07/09 02:42:22;;;;;;;3.10;1.20;;;;;;;;;;10422066;28;20930;-88
2022/07/09 02:47:24;;;;;;;2.45;1.20;;;;;;;;;;10422558;28;20495;-87
2022/07/09 02:52:27;;;;;;;1.95;1.27;;;;;;;;;;10437378;28;20516;-88
2022/07/09 02:57:29;;;;;;;1.67;1.17;;;;;;;;;;10433168;28;20418;-88
2022/07/09 03:02:31;;;;;;;3.10;1.30;;;;;;;;;;10432842;28;20410;-88
2022/07/09 03:07:34;;;;;;;3.95;1.30;;;;;;;;;;10436261;28;20412;-88
2022/07/09 03:12:36;;;;;;;2.47;1.20;;;;;;;;;;10416110;28;20502;-88
2022/07/09 03:17:38;;;;;;;1.77;1.38;;;;;;;;;;10422245;28;20405;-87
2022/07/09 03:22:42;;;;;;;2.40;1.30;;;;;;;;;;10419886;28;20405;-87
2022/07/09 03:27:44;;;;;;;2.70;1.40;;;;;;;;;;10427181;28;20460;-88
2022/07/09 03:32:46;;;;;;;2.77;1.27;;;;;;;;;;10426838;28;20425;-88
2022/07/09 03:37:49;;;;;;;1.30;1.20;;;;;;;;;;10426315;28;20409;-88
2022/07/09 03:42:51;;;;;;;3.10;1.30;;;;;;;;;;10425204;28;20475;-88
2022/07/09 03:47:53;;;;;;;5.33;1.30;;;;;;;;;;10421008;28;21020;-88
2022/07/09 03:52:57;;;;;;;2.70;1.20;;;;;;;;;;10431306;28;20444;-88
2022/07/09 03:57:59;;;;;;;2.80;1.30;;;;;;;;;;10427560;28;20403;-87
2022/07/09 04:03:01;;;;;;;1.73;1.13;;;;;;;;;;10427291;28;20899;-87
2022/07/09 04:08:04;;;;;;;3.42;1.50;;;;;;;;;;10401583;28;20939;-87
2022/07/09 04:13:06;;;;;;;2.70;1.13;;;;;;;;;;10440814;28;20424;-88
2022/07/09 04:18:08;;;;;;;1.27;0.95;;;;;;;;;;10416438;28;20487;-88
2022/07/09 04:23:11;;;;;;;2.28;1.10;;;;;;;;;;10428242;28;20782;-87
2022/07/09 04:28:13;;;;;;;3.75;1.33;;;;;;;;;;10419854;28;20401;-87
2022/07/09 04:33:15;;;;;;;4.07;1.20;;;;;;;;;;10409544;28;20414;-88
2022/07/09 04:38:18;;;;;;;3.93;1.20;;;;;;;;;;10427731;28;20409;-88
2022/07/09 04:43:20;;;;;;;3.35;1.10;;;;;;;;;;10421833;28;21258;-88
2022/07/09 04:48:22;;;;;;;2.67;1.00;;;;;;;;;;10423517;28;20404;-88
2022/07/09 04:53:25;;;;;;;2.15;1.13;;;;;;;;;;10438207;28;20423;-88
2022/07/09 04:58:27;;;;;;;3.20;1.07;;;;;;;;;;10426853;28;20495;-87
2022/07/09 05:03:29;;;;;;;2.47;1.27;;;;;;;;;;10424818;28;20410;-88
2022/07/09 05:08:32;;;;;;;2.53;1.10;;;;;;;;;;10420947;28;20504;-88
2022/07/09 05:13:34;;;;;;;1.52;1.05;;;;;;;;;;10428582;28;20506;-86
2022/07/09 05:18:36;;;;;;;1.75;1.00;;;;;;;;;;10430342;28;20407;-87
2022/07/09 05:23:39;;;;;;;2.23;1.00;;;;;;;;;;10411665;28;20905;-89
2022/07/09 05:28:41;;;;;;;3.25;1.35;;;;;;;;;;10426479;28;20400;-87
2022/07/09 05:33:43;;;;;;;3.78;1.23;;;;;;;;;;10424787;28;20797;-86
2022/07/09 05:38:47;;;;;;;2.22;1.13;;;;;;;;;;10427775;28;20902;-86
2022/07/09 05:43:49;;;;;;;3.20;0.93;;;;;;;;;;10405987;28;20882;-88
2022/07/09 05:48:51;;;;;;;2.90;0.83;;;;;;;;;;10405763;28;20405;-88
2022/07/09 05:53:54;;;;;;;1.50;0.90;;;;;;;;;;10416487;28;20930;-87
2022/07/09 05:58:56;;;;;;;2.17;0.93;;;;;;;;;;10405307;28;21331;-86
2022/07/09 06:03:58;;;;;;;1.60;0.85;;;;;;;;;;10403232;28;20409;-86
2022/07/09 06:09:02;;;;;;;2.55;0.90;;;;;;;;;;10415975;28;20413;-88
2022/07/09 06:14:04;;;;;;;1.65;0.95;;;;;;;;;;10419452;28;20429;-87
2022/07/09 06:19:05;;;;;;;1.63;1.00;;;;;;;;;;10418194;28;20475;-79
2022/07/09 06:24:09;;;;;;;3.80;1.00;;;;;;;;;;10422371;28;20410;-82
2022/07/09 06:29:10;;;;;;;2.53;1.00;;;;;;;;;;10414867;28;20480;-83
2022/07/09 06:34:12;;;;;;;4.53;1.33;;;;;;;;;;10426882;28;20424;-83
2022/07/09 06:44:34;;;;;;;1.65;0.90;;;;;;;;;;10414212;28;20393;-87
2022/07/09 06:49:36;;;;;;;2.75;1.00;;;;;;;;;;10410297;28;20491;-87
2022/07/09 06:54:40;;;;;;;1.25;0.90;;;;;;;;;;10435349;28;20921;-87
2022/07/09 06:59:41;;;;;;;2.47;1.30;;;;;;;;;;10424651;28;20402;-86
2022/07/09 07:04:43;;;;;;;2.00;0.90;;;;;;;;;;10413642;28;20411;-86
2022/07/09 07:09:46;;;;;;;2.17;1.00;;;;;;;;;;10421184;28;20494;-87
2022/07/09 07:14:48;;;;;;;1.50;0.83;;;;;;;;;;10430876;28;20430;-87
2022/07/09 07:19:50;;;;;;;1.20;0.93;;;;;;;;;;10430014;28;20446;-87
2022/07/09 07:24:54;;;;;;;1.75;0.75;;;;;;;;;;10434162;28;20490;-87
2022/07/09 07:29:55;;;;;;;1.15;0.90;;;;;;;;;;10435319;28;20400;-88
2022/07/09 07:34:57;;;;;;;1.90;0.80;;;;;;;;;;10434793;28;20434;-86
2022/07/09 07:40:01;;;;;;;1.60;0.88;;;;;;;;;;10434676;28;20405;-86
2022/07/09 07:45:03;;;;;;;2.65;0.80;;;;;;;;;;10426008;28;20412;-84
2022/07/09 07:50:08;;;;;;;1.60;0.85;;;;;;;;;;10419424;28;20409;-87
2022/07/09 07:55:11;;;;;;;3.17;0.93;;;;;;;;;;10433610;28;20516;-86
2022/07/09 08:00:14;;;;;;;1.10;0.80;;;;;;;;;;10435737;28;20403;-85
2022/07/09 08:05:15;;;;;;;3.72;0.80;;;;;;;;;;10427561;28;20434;-87
2022/07/09 08:10:19;;;;;;;3.42;1.10;;;;;;;;;;10426005;28;20813;-86
2022/07/09 08:15:21;;;;;;;1.20;0.70;;;;;;;;;;10428159;28;20421;-85
2022/07/09 08:20:23;;;;;;;2.30;0.80;;;;;;;;;;10436025;28;20479;-85
2022/07/09 08:25:27;;;;;;;2.35;0.80;;;;;;;;;;10434299;28;20402;-86
2022/07/09 08:30:29;;;;;;;2.28;0.95;;;;;;;;;;10433558;28;20395;-86
2022/07/09 08:35:31;;;;;;;2.72;0.90;;;;;;;;;;10431509;28;20423;-85
2022/07/09 08:40:35;;;;;;;3.20;0.90;;;;;;;;;;10425265;28;20405;-84
2022/07/09 08:45:37;;;;;;;2.03;1.02;;;;;;;;;;10428303;28;20488;-85
2022/07/09 08:50:42;;;;;;;1.70;1.00;;;;;;;;;;10423512;28;20500;-84
2022/07/09 08:55:45;;;;;;;2.13;1.05;;;;;;;;;;10427162;28;20425;-86
2022/07/09 09:00:49;;;;;;;4.60;1.27;;;;;;;;;;10422668;28;20416;-85
2022/07/09 09:06:02;;;;;;;3.87;1.30;;;;;;;;;;10425460;28;20411;-86
2022/07/09 09:11:07;;;;;;;2.20;1.10;;;;;;;;;;10385336;28;20421;-86
2022/07/09 09:16:11;;;;;;;2.30;0.93;;;;;;;;;;10382128;28;20417;-85
2022/07/09 09:21:14;;;;;;;2.50;1.03;;;;;;;;;;10387980;28;20504;-87
2022/07/09 09:26:19;;;;;;;2.42;1.00;;;;;;;;;;10382756;28;20401;-86
2022/07/09 09:31:26;;;;;;;2.85;1.10;;;;;;;;;;10383084;28;20953;-86
2022/07/09 09:36:33;;;;;;;4.53;1.20;;;;;;;;;;10373712;28;20406;-88
2022/07/09 09:41:36;;;;;;;2.63;1.20;;;;;;;;;;10389241;28;20413;-87
2022/07/09 09:46:39;;;;;;;2.00;1.10;;;;;;;;;;10385390;28;20905;-79
2022/07/09 09:51:50;;;;;;;2.00;1.03;;;;;;;;;;10388563;28;20448;-87
2022/07/09 09:56:55;;;;;;;1.97;1.00;;;;;;;;;;10379327;28;20408;-89
2022/07/09 10:01:57;;;;;;;2.33;0.90;;;;;;;;;;10382043;28;20438;-89
2022/07/09 10:06:59;;;;;;;1.53;1.10;;;;;;;;;;10377130;28;20461;-77
2022/07/09 10:12:05;;;;;;;2.33;1.23;;;;;;;;;;10384079;28;20961;-76
2022/07/09 10:17:12;;;;;;;2.78;1.20;;;;;;;;;;10382870;28;20405;-83
2022/07/09 10:22:14;;;;;;;2.67;1.88;;;;;;;;;;10387090;28;20423;-85
2022/07/09 10:27:17;;;;;;;3.43;1.53;;;;;;;;;;10388648;28;20952;-86
2022/07/09 10:32:25;;;;;;;2.85;1.65;;;;;;;;;;10384635;28;20509;-81
2022/07/09 10:37:42;;;;;;;2.10;1.20;;;;;;;;;;10387740;28;20492;-77
2022/07/09 10:42:57;;;;;;;3.20;1.00;;;;;;;;;;10386895;28;20405;-84
2022/07/09 10:48:01;;;;;;;2.90;1.10;;;;;;;;;;10373468;28;20405;-88
2022/07/09 10:53:03;;;;;;;2.67;1.15;;;;;;;;;;10387747;28;20528;-88
2022/07/09 10:58:17;;;;;;;1.45;1.00;;;;;;;;;;10387934;28;20414;-87
2022/07/09 11:03:25;;;;;;;2.20;1.10;;;;;;;;;;10390059;28;20641;-87
2022/07/09 11:08:27;;;;;;;2.00;1.17;;;;;;;;;;10417943;28;20992;-88
2022/07/09 11:13:30;;;;;;;2.13;0.98;;;;;;;;;;10425475;28;20424;-89
2022/07/09 11:18:32;;;;;;;1.98;1.13;;;;;;;;;;10429071;28;20496;-87
2022/07/09 11:23:34;;;;;;;2.20;1.05;;;;;;;;;;10421900;28;20427;-88
2022/07/09 11:28:39;;;;;;;2.17;1.20;;;;;;;;;;10428089;28;20943;-87
2022/07/09 11:39:01;;;;;;;1.55;0.90;;;;;;;;;;10444311;28;20396;-89
2022/07/09 11:44:04;;;;;;;1.08;0.98;;;;;;;;;;10421448;28;20440;-88
2022/07/09 11:49:15;;;;;;;1.33;1.08;;;;;;;;;;10408466;28;20402;-88
2022/07/09 11:54:27;;;;;;;1.75;1.10;;;;;;;;;;10430811;28;20463;-88
2022/07/09 11:59:33;;;;;;;1.87;1.00;;;;;;;;;;10407111;28;20392;-87
2022/07/09 12:04:34;;;;;;;1.10;0.97;;;;;;;;;;10408881;28;20921;-87
2022/07/09 12:09:36;;;;;;;1.90;1.10;;;;;;;;;;10389437;28;20500;-88
2022/07/09 12:14:39;;;;;;;2.57;1.17;;;;;;;;;;10365802;28;20989;-87
2022/07/09 12:19:41;;;;;;;1.67;1.10;;;;;;;;;;10366861;28;20498;-88
2022/07/09 12:24:43;;;;;;;3.42;1.15;;;;;;;;;;10377588;28;20527;-87
2022/07/09 12:29:47;;;;;;;2.05;1.05;;;;;;;;;;10365740;28;20482;-87
2022/07/09 12:34:49;;;;;;;1.73;1.13;;;;;;;;;;10368356;28;20868;-88
2022/07/09 12:39:50;;;;;;;1.98;0.95;;;;;;;;;;10370888;28;20437;-88
2022/07/09 12:44:54;;;;;;;1.60;0.93;;;;;;;;;;10370884;28;20422;-87
2022/07/09 12:49:56;;;;;;;1.35;1.00;;;;;;;;;;10365674;28;20490;-87
2022/07/09 12:54:58;;;;;;;2.38;1.05;;;;;;;;;;10372672;28;20426;-88
2022/07/09 13:00:02;;;;;;;2.40;0.98;;;;;;;;;;10364469;28;20490;-87
2022/07/09 13:05:04;;;;;;;1.23;0.80;;;;;;;;;;10372567;28;20443;-88
2022/07/09 13:10:07;;;;;;;2.77;1.10;;;;;;;;;;10403655;28;20480;-87
2022/07/09 13:15:11;;;;;;;2.00;1.00;;;;;;;;;;10404979;28;20504;-87
2022/07/09 13:20:13;;;;;;;1.80;1.00;;;;;;;;;;10413671;28;20423;-87
2022/07/09 13:25:15;;;;;;;1.65;1.00;;;;;;;;;;10415813;28;20755;-86
2022/07/09 13:30:21;;;;;;;1.63;1.00;;;;;;;;;;10405266;28;20409;-87
2022/07/09 13:35:24;;;;;;;1.65;1.02;;;;;;;;;;10412008;28;20780;-88
2022/07/09 13:40:26;;;;;;;2.20;1.00;;;;;;;;;;10426098;28;20415;-87
2022/07/09 13:45:29;;;;;;;2.67;1.10;;;;;;;;;;10425527;28;20408;-87
2022/07/09 13:50:31;;;;;;;1.48;1.17;;;;;;;;;;10421841;28;20451;-87
2022/07/09 13:55:33;;;;;;;1.90;1.10;;;;;;;;;;10426421;28;20985;-88
2022/07/09 14:00:36;;;;;;;2.58;1.10;;;;;;;;;;10405083;28;20485;-87
2022/07/09 14:05:38;;;;;;;2.22;1.10;;;;;;;;;;10423716;28;20486;-88
2022/07/09 14:10:40;;;;;;;1.30;0.90;;;;;;;;;;10379240;28;20492;-88
2022/07/09 14:15:43;;;;;;;1.65;1.00;;;;;;;;;;10364399;28;20510;-87
2022/07/09 14:20:45;;;;;;;1.70;1.00;;;;;;;;;;10383942;28;20839;-88
2022/07/09 14:25:47;;;;;;;3.30;1.10;;;;;;;;;;10371638;28;20522;-88
2022/07/09 14:30:50;;;;;;;1.45;0.90;;;;;;;;;;10381339;28;20437;-86
2022/07/09 14:35:52;;;;;;;2.90;1.10;;;;;;;;;;10380806;28;20417;-87
2022/07/09 14:40:54;;;;;;;1.88;1.08;;;;;;;;;;10381272;28;20409;-88
2022/07/09 14:45:57;;;;;;;1.30;1.03;;;;;;;;;;10379970;28;20841;-88
2022/07/09 14:50:59;;;;;;;1.10;1.00;;;;;;;;;;10399272;28;20505;-88
2022/07/09 14:56:01;;;;;;;1.73;0.90;;;;;;;;;;10386313;28;20424;-88
2022/07/09 15:01:06;;;;;;;2.17;1.23;;;;;;;;;;10408955;28;20395;-89
2022/07/09 15:06:08;;;;;;;1.20;1.00;;;;;;;;;;10416356;28;20452;-87
2022/07/09 15:11:11;;;;;;;4.47;1.40;;;;;;;;;;10432300;28;21062;-87
2022/07/09 15:16:14;;;;;;;4.38;1.35;;;;;;;;;;10412246;28;20925;-88
2022/07/09 15:21:16;;;;;;;1.70;1.20;;;;;;;;;;10447670;28;20443;-87
2022/07/09 15:26:17;;;;;;;2.35;1.10;;;;;;;;;;10417479;28;20437;-87
2022/07/09 15:31:23;;;;;;;3.13;1.20;;;;;;;;;;10409983;28;20517;-89
2022/07/09 15:36:25;;;;;;;1.73;1.20;;;;;;;;;;10414020;28;20468;-87
2022/07/09 15:41:28;;;;;;;2.20;1.10;;;;;;;;;;10422925;28;20692;-88
2022/07/09 15:46:32;;;;;;;0.82;0.82;;;;;;;;;;10420702;28;20421;-88
2022/07/09 15:51:34;;;;;;;1.70;0.88;;;;;;;;;;10419523;28;20409;-88
2022/07/09 15:56:35;;;;;;;1.60;0.95;;;;;;;;;;10419950;28;20941;-89
2022/07/09 16:01:39;;;;;;;1.35;1.13;;;;;;;;;;10419776;28;20456;-89
2022/07/09 16:06:41;;;;;;;1.63;1.03;;;;;;;;;;10425536;28;20487;-88
2022/07/09 16:17:04;;;;;;;2.80;1.10;;;;;;;;;;10411496;28;20828;-88
2022/07/09 16:22:06;;;;;;;1.23;1.00;;;;;;;;;;10425817;28;20439;-88
2022/07/09 16:27:07;;;;;;;2.42;1.00;;;;;;;;;;10416604;28;20933;-87
2022/07/09 16:32:11;;;;;;;1.60;0.90;;;;;;;;;;10416085;28;20484;-88
2022/07/09 16:37:12;;;;;;;1.50;1.00;;;;;;;;;;10419050;28;20508;-88
2022/07/09 16:42:14;;;;;;;1.13;1.00;;;;;;;;;;10417616;28;20410;-89
2022/07/09 16:47:18;;;;;;;2.87;0.97;;;;;;;;;;10427169;28;20448;-89
2022/07/09 16:52:19;;;;;;;2.00;1.10;;;;;;;;;;10419594;28;20516;-89
2022/07/09 16:57:21;;;;;;;1.25;1.00;;;;;;;;;;10408382;28;20460;-88
2022/07/09 17:02:24;;;;;;;1.38;1.00;;;;;;;;;;10419812;28;20544;-89
2022/07/09 17:07:26;;;;;;;2.03;1.00;;;;;;;;;;10423862;28;20992;-88
2022/07/09 17:12:29;;;;;;;1.83;1.00;;;;;;;;;;10419732;28;20409;-87
2022/07/09 17:17:32;;;;;;;1.88;1.15;;;;;;;;;;10420728;28;20848;-87
2022/07/09 17:22:34;;;;;;;1.58;1.08;;;;;;;;;;10423638;28;20516;-87
2022/07/09 17:27:36;;;;;;;1.90;1.10;;;;;;;;;;10417542;28;20506;-88
2022/07/09 17:32:40;;;;;;;1.67;1.10;;;;;;;;;;10412811;28;20407;-89
2022/07/09 17:37:41;;;;;;;1.33;1.23;;;;;;;;;;10416361;28;20728;-88
2022/07/09 17:42:43;;;;;;;1.93;1.13;;;;;;;;;;10419007;28;20464;-88
2022/07/09 17:47:47;;;;;;;2.20;1.20;;;;;;;;;;10425806;28;20479;-88
2022/07/09 17:52:49;;;;;;;3.07;1.20;;;;;;;;;;10420729;28;20429;-88
2022/07/09 17:57:52;;;;;;;2.87;1.63;;;;;;;;;;10413216;28;20468;-89
2022/07/09 18:02:56;;;;;;;4.00;1.80;;;;;;;;;;10418235;28;20399;-88
2022/07/09 18:07:59;;;;;;;2.78;1.40;;;;;;;;;;10421187;28;20443;-88
2022/07/09 18:13:03;;;;;;;2.30;1.30;;;;;;;;;;10418751;28;20400;-88
2022/07/09 18:18:06;;;;;;;2.20;1.20;;;;;;;;;;10418047;28;20719;-88
2022/07/09 18:23:09;;;;;;;3.50;1.10;;;;;;;;;;10425868;28;20468;-89
2022/07/09 18:28:15;;;;;;;1.60;1.10;;;;;;;;;;10421072;28;20398;-88
2022/07/09 18:33:18;;;;;;;1.05;1.00;;;;;;;;;;10420379;28;20411;-89
2022/07/09 18:38:20;;;;;;;2.47;1.30;;;;;;;;;;10413355;28;20481;-89
2022/07/09 18:43:21;;;;;;;2.75;1.90;;;;;;;;;;10422917;28;20877;-88
2022/07/09 18:48:25;;;;;;;3.15;1.60;;;;;;;;;;10411020;28;20963;-89
2022/07/09 18:53:26;;;;;;;2.20;1.40;;;;;;;;;;10416642;28;21000;-88
2022/07/09 18:58:28;;;;;;;2.73;1.60;;;;;;;;;;10416879;28;20951;-89
2022/07/09 19:03:32;;;;;;;3.45;2.08;;;;;;;;;;10421400;28;20476;-88
2022/07/09 19:08:33;;;;;;;3.30;2.10;;;;;;;;;;10433194;28;20413;-89
2022/07/09 19:13:35;;;;;;;3.78;2.40;;;;;;;;;;10421335;28;20859;-87
2022/07/09 19:18:38;;;;;;;3.17;2.03;;;;;;;;;;10426187;28;20508;-87
2022/07/09 19:23:40;;;;;;;1.85;1.70;;;;;;;;;;10426045;28;20497;-87
2022/07/09 19:28:42;;;;;;;2.70;1.63;;;;;;;;;;10424899;28;20514;-88
2022/07/09 19:34:01;;;;;;;3.25;1.75;;;;;;;;;;10429017;28;20506;-88
2022/07/09 19:39:04;;;;;;;2.72;1.70;;;;;;;;;;10420344;28;20795;-88
2022/07/09 19:44:07;;;;;;;2.83;1.90;;;;;;;;;;10426502;28;20750;-88
2022/07/09 19:49:11;;;;;;;2.23;1.80;;;;;;;;;;10417463;28;20486;-88
2022/07/09 19:54:13;;;;;;;3.78;1.80;;;;;;;;;;10422970;28;20451;-88
2022/07/09 19:59:15;;;;;;;5.40;1.90;;;;;;;;;;10421023;28;20982;-86
2022/07/09 20:04:18;;;;;;;2.53;2.33;;;;;;;;;;10422857;28;20443;-87
2022/07/09 20:09:20;;;;;;;4.00;2.10;;;;;;;;;;10422592;28;20517;-88
2022/07/09 20:14:22;;;;;;;3.70;2.50;;;;;;;;;;10415337;28;20972;-88
2022/07/09 20:19:25;;;;;;;3.58;2.70;;;;;;;;;;10415976;28;20488;-88
2022/07/09 20:24:27;;;;;;;5.00;2.90;;;;;;;;;;10430357;28;20467;-87
2022/07/09 20:29:29;;;;;;;3.23;2.40;;;;;;;;;;10460217;28;20417;-88
2022/07/09 20:34:32;;;;;;;3.70;2.70;;;;;;;;;;10421679;28;20572;-88
2022/07/09 20:39:34;;;;;;;4.00;2.85;;;;;;;;;;10427883;28;20486;-88
2022/07/09 20:44:36;;;;;;;4.03;3.00;;;;;;;;;;10421421;28;20408;-86
2022/07/09 20:49:39;;;;;;;5.45;3.45;;;;;;;;;;10421726;28;20909;-87
2022/07/09 20:54:41;;;;;;;5.00;2.90;;;;;;;;;;10424002;28;20863;-87
2022/07/09 20:59:43;;;;;;;3.90;2.70;;;;;;;;;;10419922;28;20442;-89
2022/07/09 21:04:46;;;;;;;3.85;2.42;;;;;;;;;;10414967;28;20500;-88
2022/07/09 21:09:48;;;;;;;4.23;2.63;;;;;;;;;;10395667;28;20423;-88
2022/07/09 21:14:50;;;;;;;3.92;2.42;;;;;;;;;;10375758;28;20516;-87
2022/07/09 21:19:53;;;;;;;4.85;2.70;;;;;;;;;;10381417;28;20500;-87
2022/07/09 21:24:55;;;;;;;4.05;2.88;;;;;;;;;;10383357;28;20459;-88
2022/07/09 21:29:57;;;;;;;5.70;2.92;;;;;;;;;;10378306;28;20498;-88
2022/07/09 21:35:00;;;;;;;5.45;2.90;;;;;;;;;;10380403;28;20873;-88
2022/07/09 21:40:02;;;;;;;4.22;2.90;;;;;;;;;;10379217;28;20988;-87
2022/07/09 21:45:04;;;;;;;4.95;3.08;;;;;;;;;;10377548;28;20418;-88
2022/07/09 21:50:09;;;;;;;4.93;3.28;;;;;;;;;;10378908;28;20431;-88
2022/07/09 21:55:11;;;;;;;6.10;3.25;;;;;;;;;;10373694;28;20837;-87
2022/07/09 22:00:15;;;;;;;3.38;2.65;;;;;;;;;;10383133;28;20476;-88
2022/07/09 22:05:19;;;;;;;4.23;2.87;;;;;;;;;;10379757;28;20493;-88
2022/07/09 22:10:21;;;;;;;4.88;2.50;;;;;;;;;;10405981;28;20507;-88
2022/07/09 22:15:22;;;;;;;3.37;2.90;;;;;;;;;;10415225;28;20996;-88
2022/07/09 22:20:26;;;;;;;4.03;2.93;;;;;;;;;;10415687;28;20403;-88
2022/07/09 22:25:28;;;;;;;5.47;3.17;;;;;;;;;;10416948;28;20445;-88
2022/07/09 22:30:30;;;;;;;5.33;3.00;;;;;;;;;;10411915;28;21258;-89
2022/07/09 22:35:33;;;;;;;5.38;2.80;;;;;;;;;;10419530;28;20442;-86
2022/07/09 22:40:35;;;;;;;4.80;2.93;;;;;;;;;;10418829;28;20396;-88
2022/07/09 22:45:37;;;;;;;4.50;2.83;;;;;;;;;;10420201;28;20487;-87
2022/07/09 22:50:40;;;;;;;4.80;3.20;;;;;;;;;;10433068;28;20524;-87
2022/07/09 22:55:42;;;;;;;5.73;3.03;;;;;;;;;;10432888;28;20502;-88
2022/07/09 23:00:44;;;;;;;3.57;2.60;;;;;;;;;;10420664;28;20843;-87
2022/07/09 23:05:47;;;;;;;5.38;2.67;;;;;;;;;;10426010;28;20503;-88
2022/07/09 23:10:49;;;;;;;3.10;2.30;;;;;;;;;;10393821;28;20536;-87
2022/07/09 23:15:51;;;;;;;3.03;2.17;;;;;;;;;;10384538;28;20505;-89
2022/07/09 23:20:54;;;;;;;2.72;2.17;;;;;;;;;;10389276;28;20480;-89
2022/07/09 23:25:56;;;;;;;2.83;2.40;;;;;;;;;;10384125;28;20886;-88
2022/07/09 23:30:58;;;;;;;2.78;2.50;;;;;;;;;;10381958;28;20438;-86
2022/07/09 23:36:01;;;;;;;3.25;2.80;;;;;;;;;;10388650;28;20467;-87
2022/07/09 23:41:04;;;;;;;5.67;2.60;;;;;;;;;;10386627;28;20484;-87
2022/07/09 23:46:06;;;;;;;3.50;2.73;;;;;;;;;;10381825;28;20496;-87
2022/07/09 23:51:10;;;;;;;3.83;2.15;;;;;;;;;;10384678;28;20874;-87
2022/07/09 23:56:12;;;;;;;3.50;2.50;;;;;;;;;;10377506;28;20885;-87
